Latest Weather Observations for Thargomindah

IDQ60801

Issued at 4:02 pm EST Wednesday 5 August 2015 (issued every 30 minutes, with the page automatically refreshed every 10 minutes)

About weather observations | Map of weather stations | Latest weather observations for QLD | Other Formats
Station Details ID: 045025 Name: THARGOMINDAH AIRPORT Lat: -27.99 Lon: 143.81 Height: 130.89 m
Data from the previous 72 hours. | See also: Recent months at Thargomindah
Date/Time
EST
Temp
°C
App
Temp
°C
Dew
Point
Rel
Hum
%
Delta-T
°C
Wind Press
QNH
hPa
Press
MSL
hPa
Rain
since 9 am
mm
Dir
 
Spd
km/h
Gust
km/h
Spd
kts
Gust
kts
05/04:00pm 16.6 10.7 -1.0 30 7.4 SW 20 28 11 15 1020.7 - 0.0
05/03:30pm 16.5 10.7 -1.6 29 7.5 SW 19 28 10 15 1020.7 - 0.0
05/03:00pm 16.9 11.6 -0.8 30 7.5 WSW 17 26 9 14 1021.0 1020.8 0.0
05/02:30pm 16.6 10.7 -0.6 31 7.3 SW 20 30 11 16 1021.1 - 0.0
05/02:00pm 16.8 10.5 -0.9 30 7.5 SSW 22 28 12 15 1021.3 - 0.0
05/01:30pm 15.7 9.9 -1.4 31 7.1 SSW 19 28 10 15 1021.7 - 0.0
05/01:00pm 16.4 11.1 -0.3 32 7.1 SW 17 28 9 15 1022.3 - 0.0
05/12:30pm 15.1 9.2 -1.0 33 6.7 SSW 20 35 11 19 1022.8 - 0.0
05/12:00pm 15.2 10.3 -0.5 34 6.6 S 15 28 8 15 1023.4 1023.1 0.0
05/11:30am 14.3 8.7 -0.2 37 6.1 SSW 19 32 10 17 1024.1 - 0.0
05/11:00am 13.4 8.1 -0.3 39 5.7 SSW 17 28 9 15 1024.5 - 0.0
05/10:30am 13.2 8.0 0.3 41 5.4 S 17 30 9 16 1024.6 - 0.0
05/10:00am 12.2 8.5 0.0 43 5.0 S 9 15 5 8 1024.7 - 0.0
05/09:30am 11.1 8.0 -0.1 46 4.6 SSE 6 9 3 5 1024.6 - 0.0
05/09:00am 9.8 6.6 0.7 53 3.7 S 7 9 4 5 1024.5 1024.2 0.0
05/08:30am 8.1 5.1 0.6 59 3.0 S 6 7 3 4 1024.5 - 0.0
05/08:00am 6.3 3.2 0.0 64 2.5 S 6 7 3 4 1024.3 - 0.0
05/07:30am 5.4 2.1 0.0 68 2.1 S 7 9 4 5 1024.1 - 0.0
05/07:00am 5.2 1.5 0.0 69 2.0 S 9 11 5 6 1023.9 - 0.0
05/06:30am 5.2 1.5 0.0 69 2.0 S 9 11 5 6 1023.7 - 0.0
05/06:00am 5.5 1.4 -0.3 66 2.2 S 11 11 6 6 1023.5 1023.3 0.0
05/05:30am 6.0 2.7 0.1 66 2.3 S 7 9 4 5 1023.3 - 0.0
05/05:00am 6.1 2.4 0.0 65 2.4 S 9 11 5 6 1023.2 - 0.0
05/04:30am 6.4 2.7 -0.1 63 2.5 S 9 11 5 6 1023.3 - 0.0
05/04:00am 6.2 2.5 -0.1 64 2.4 SSW 9 11 5 6 1023.4 - 0.0
05/03:30am 6.3 3.0 -0.2 63 2.5 SW 7 9 4 5 1023.5 - 0.0
05/03:00am 6.6 3.3 -0.1 62 2.6 SW 7 9 4 5 1024.0 1023.6 0.0
05/02:30am 7.5 4.2 0.3 60 2.9 SSW 7 9 4 5 1024.3 - 0.0
05/02:00am 8.3 5.0 0.3 57 3.2 S 7 9 4 5 1024.2 - 0.0
05/01:30am 9.2 5.2 0.6 55 3.5 S 11 13 6 7 1024.2 - 0.0
05/01:00am 9.8 5.8 0.7 53 3.7 S 11 15 6 8 1024.1 - 0.0
05/12:30am 10.3 6.0 0.9 52 3.9 S 13 15 7 8 1024.3 - 0.0
05/12:00am 10.4 6.5 1.0 52 3.9 SSW 11 13 6 7 1024.4 1024.1 0.0
 
Date/Time
EST
Temp
°C
App
Temp
°C
Dew
Point
Rel
Hum
%
Delta-T
°C
Wind Press
QNH
hPa
Press
MSL
hPa
Rain
since 9 am
mm
Dir
 
Spd
km/h
Gust
km/h
Spd
kts
Gust
kts
04/11:30pm 10.7 6.8 1.3 52 3.9 SSW 11 13 6 7 1024.3 - 0.0
04/11:00pm 10.9 7.0 0.9 50 4.2 SSW 11 13 6 7 1024.2 - 0.0
04/10:30pm 11.5 7.2 0.9 48 4.4 SSW 13 15 7 8 1024.1 - 0.0
04/10:00pm 12.1 8.1 0.8 46 4.8 S 11 15 6 8 1024.0 - 0.0
04/09:30pm 12.7 8.4 1.1 45 4.9 S 13 15 7 8 1024.0 - 0.0
04/09:00pm 13.0 8.7 0.7 43 5.2 SSW 13 15 7 8 1024.0 1023.7 0.0
04/08:30pm 13.7 9.4 0.7 41 5.5 SSW 13 17 7 9 1024.1 - 0.0
04/08:00pm 14.1 9.4 0.7 40 5.7 SSW 15 17 8 9 1023.6 - 0.0
04/07:30pm 14.3 10.3 0.5 39 5.9 SSW 11 13 6 7 1023.2 - 0.0
04/07:00pm 14.9 10.8 0.0 36 6.3 SSW 11 15 6 8 1023.0 - 0.0
04/06:30pm 15.5 11.0 -0.3 34 6.7 SW 13 20 7 11 1022.8 - 0.0
04/06:00pm 16.2 11.3 -0.5 32 7.1 SW 15 22 8 12 1022.6 1022.4 0.0
04/05:30pm 17.0 11.2 -0.2 31 7.4 SW 20 28 11 15 1022.6 - 0.0
04/05:00pm 17.6 11.9 -0.6 29 7.8 SW 19 28 10 15 1022.4 - 0.0
04/04:30pm 18.5 13.6 -0.3 28 8.2 WSW 15 26 8 14 1022.5 - 0.0
04/04:00pm 18.4 14.0 0.1 29 8.0 SW 13 22 7 12 1022.6 - 0.0
04/03:30pm 18.4 13.2 0.1 29 8.0 WSW 17 26 9 14 1023.0 - 0.0
04/03:00pm 17.5 14.0 -1.2 28 7.9 WSW 7 22 4 12 1023.2 1023.0 0.0
04/02:30pm 18.3 12.4 -0.5 28 8.2 SSW 20 26 11 14 1023.4 - 0.0
04/02:00pm 18.4 13.1 -0.4 28 8.2 SW 17 28 9 15 1023.7 - 0.0
04/01:30pm 17.2 13.1 -0.1 31 7.5 SSW 11 17 6 9 1024.3 - 0.0
04/01:00pm 17.8 14.1 0.0 30 7.8 WNW 9 15 5 8 1024.6 - 0.0
04/12:30pm 16.5 11.6 -0.7 31 7.3 S 15 28 8 15 1025.1 - 0.0
04/12:00pm 16.1 11.9 -0.6 32 7.0 SSE 11 24 6 13 1025.6 1025.5 0.0
04/11:30am 16.3 12.3 0.4 34 6.9 SE 11 19 6 10 1026.0 - 0.0
04/11:00am 15.4 10.9 0.0 35 6.6 S 13 22 7 12 1026.5 - 0.0
04/10:30am 15.0 11.4 0.8 38 6.1 SE 9 19 5 10 1026.7 - 0.0
04/10:00am 14.0 10.9 1.6 43 5.4 ESE 7 9 4 5 1026.8 - 0.0
04/09:30am 12.5 10.0 1.8 48 4.6 ESE 4 9 2 5 1026.7 - 0.0
04/09:00am 10.4 7.7 2.5 58 3.4 S 6 7 3 4 1026.4 1026.2 0.0
04/08:30am 8.9 6.2 2.5 64 2.7 S 6 7 3 4 1026.2 - 0.0
04/08:00am 7.0 4.1 1.5 68 2.2 S 6 7 3 4 1025.9 - 0.0
04/07:30am 5.1 2.9 0.9 74 1.6 SSW 2 6 1 3 1025.8 - 0.0
04/07:00am 4.7 2.1 1.0 77 1.5 SSW 4 7 2 4 1025.7 - 0.0
04/06:30am 5.0 2.0 0.9 75 1.6 S 6 7 3 4 1025.3 - 0.0
04/06:00am 5.3 2.4 1.2 75 1.6 S 6 7 3 4 1025.0 1024.7 0.0
04/05:30am 5.9 2.9 1.1 71 1.9 S 6 7 3 4 1024.8 - 0.0
04/05:00am 6.8 2.9 1.3 68 2.2 S 11 11 6 6 1024.7 - 0.0
04/04:30am 6.9 3.4 1.2 67 2.3 S 9 11 5 6 1024.7 - 0.0
04/04:00am 7.3 3.9 1.6 67 2.3 S 9 11 5 6 1024.8 - 0.0
04/03:30am 7.0 3.8 0.7 64 2.5 S 7 7 4 4 1024.8 - 0.0
04/03:00am 8.0 5.0 1.8 65 2.6 S 7 9 4 5 1024.9 1024.6 0.0
04/02:30am 8.2 5.2 1.8 64 2.7 S 7 9 4 5 1024.8 - 0.0
04/02:00am 8.0 4.5 1.4 63 2.7 S 9 11 5 6 1025.0 - 0.0
04/01:30am 8.5 5.4 1.4 61 2.9 SSW 7 7 4 4 1024.9 - 0.0
04/01:00am 9.4 6.0 1.6 58 3.3 SSE 9 11 5 6 1024.9 - 0.0
04/12:30am 9.8 6.4 1.7 57 3.4 S 9 13 5 7 1024.9 - 0.0
04/12:00am 10.4 6.6 1.8 55 3.6 SSW 11 13 6 7 1025.1 1024.8 0.0
 
Date/Time
EST
Temp
°C
App
Temp
°C
Dew
Point
Rel
Hum
%
Delta-T
°C
Wind Press
QNH
hPa
Press
MSL
hPa
Rain
since 9 am
mm
Dir
 
Spd
km/h
Gust
km/h
Spd
kts
Gust
kts
03/11:30pm 10.7 6.9 1.5 53 3.9 SSW 11 13 6 7 1025.1 - 0.0
03/11:00pm 11.3 7.1 1.8 52 4.1 SSW 13 15 7 8 1025.0 - 0.0
03/10:30pm 11.7 7.5 1.6 50 4.3 SSW 13 15 7 8 1025.1 - 0.0
03/10:00pm 12.1 7.9 1.4 48 4.6 SSW 13 15 7 8 1025.0 - 0.0
03/09:30pm 12.4 8.1 1.1 46 4.8 SSW 13 15 7 8 1025.0 - 0.0
03/09:00pm 12.9 8.6 1.0 44 5.0 SSW 13 17 7 9 1025.0 1024.7 0.0
03/08:30pm 12.6 8.5 0.0 42 5.2 SW 11 13 6 7 1024.7 - 0.0
03/08:00pm 13.0 9.3 0.1 41 5.4 SSW 9 11 5 6 1024.5 - 0.0
03/07:30pm 13.9 10.2 0.2 39 5.8 SW 9 11 5 6 1024.4 - 0.0
03/07:00pm 15.0 10.9 0.1 36 6.3 SSW 11 13 6 7 1024.0 - 0.0
03/06:30pm 15.8 11.0 0.0 34 6.8 SSW 15 19 8 10 1023.6 - 0.0
03/06:00pm 16.5 11.3 0.2 33 7.0 SSW 17 22 9 12 1023.4 1023.2 0.0
03/05:30pm 17.2 12.4 -0.1 31 7.5 S 15 20 8 11 1023.2 - 0.0
03/05:00pm 17.4 12.1 -0.3 30 7.6 S 17 26 9 14 1023.0 - 0.0
03/04:30pm 17.6 12.3 -0.6 29 7.8 S 17 26 9 14 1022.8 - 0.0
03/04:00pm 17.9 12.2 -0.8 28 8.0 SSW 19 24 10 13 1022.7 - 0.0
03/03:30pm 17.4 11.4 -1.3 28 7.9 S 20 28 11 15 1022.8 - 0.0
03/03:00pm 17.3 12.0 -0.9 29 7.7 S 17 24 9 13 1022.8 1022.7 0.0
03/02:30pm 17.2 11.2 -1.4 28 7.8 SSW 20 30 11 16 1023.1 - 0.0
03/02:00pm 17.4 12.4 -1.3 28 7.9 SSE 15 30 8 16 1023.3 - 0.0
03/01:30pm 16.7 10.7 -1.9 28 7.7 S 20 28 11 15 1023.7 - 0.0
03/01:00pm 16.4 11.0 -1.7 29 7.5 SSE 17 26 9 14 1024.2 - 0.0
03/12:30pm 16.1 11.1 -1.0 31 7.2 SE 15 28 8 15 1024.7 - 0.0
03/12:00pm 15.6 9.3 -1.0 32 6.9 SE 22 30 12 16 1025.0 1024.7 0.0
03/11:30am 14.9 9.1 -0.4 35 6.4 SSE 20 30 11 16 1025.4 - 0.0
03/11:00am 14.1 7.8 -0.7 36 6.1 SSE 22 32 12 17 1025.6 - 0.0
03/10:30am 14.1 7.9 0.0 38 5.9 SE 22 32 12 17 1025.8 - 0.0
03/10:00am 13.9 8.2 0.5 40 5.7 SE 20 30 11 16 1026.0 - 0.0
03/09:30am 13.2 7.6 0.9 43 5.2 SE 20 28 11 15 1025.9 - 0.0
03/09:00am 12.2 7.5 0.6 45 4.8 SSE 15 22 8 12 1025.7 1025.5 0.0
03/08:30am 10.9 6.7 1.4 52 4.0 SSE 13 22 7 12 1025.4 - 0.0
03/08:00am 9.9 6.1 2.0 58 3.3 S 11 13 6 7 1025.2 - 0.0
03/07:30am 9.1 5.4 2.4 63 2.8 S 11 13 6 7 1024.7 - 0.0
03/07:00am 9.1 5.4 2.4 63 2.8 S 11 13 6 7 1024.4 - 0.0
03/06:30am 9.6 5.6 2.7 62 3.0 S 13 15 7 8 1024.1 - 0.0
03/06:00am 10.1 5.7 2.9 61 3.1 S 15 19 8 10 1023.6 1023.4 0.0
03/05:30am 10.4 6.1 3.0 60 3.2 S 15 19 8 10 1023.1 - 0.0
03/05:00am 10.9 6.2 3.0 58 3.5 S 17 20 9 11 1022.7 - 0.0
03/04:30am 11.3 6.2 3.3 58 3.5 S 19 24 10 13 1022.5 - 0.0
03/04:00am 11.7 6.7 3.5 57 3.7 S 19 24 10 13 1022.4 - 0.0
03/03:30am 12.0 7.5 4.0 58 3.6 S 17 22 9 12 1022.3 - 0.0
03/03:00am 12.4 7.5 4.1 57 3.8 S 19 24 10 13 1022.2 1022.0 0.0
03/02:30am 12.8 7.7 4.3 56 3.9 S 20 26 11 14 1022.1 - 0.0
03/02:00am 13.1 7.7 4.3 55 4.0 S 22 30 12 16 1021.9 - 0.0
03/01:30am 13.4 8.3 4.3 54 4.2 S 20 28 11 15 1022.1 - 0.0
03/01:00am 13.8 8.8 4.4 53 4.3 S 20 30 11 16 1021.8 - 0.0
03/12:30am 14.0 8.6 4.6 53 4.4 S 22 32 12 17 1021.7 - 0.0
03/12:00am 14.4 8.8 5.2 54 4.3 S 24 32 13 17 1021.7 1021.5 0.0
 
Date/Time
EST
Temp
°C
App
Temp
°C
Dew
Point
Rel
Hum
%
Delta-T
°C
Wind Press
QNH
hPa
Press
MSL
hPa
Rain
since 9 am
mm
Dir
 
Spd
km/h
Gust
km/h
Spd
kts
Gust
kts
02/11:30pm 14.7 9.9 5.8 55 4.3 S 20 26 11 14 1021.5 - 0.0
02/11:00pm 15.1 10.4 6.1 55 4.4 S 20 26 11 14 1021.3 - 0.0
02/10:30pm 15.9 10.6 6.6 54 4.6 S 24 35 13 19 1021.0 - 0.0
02/10:00pm 16.4 11.4 6.5 52 4.9 S 22 30 12 16 1020.6 - 0.0
02/09:30pm 17.0 11.3 6.5 50 5.2 SSW 26 33 14 18 1020.2 - 0.0
02/09:00pm 17.8 11.3 6.3 47 5.7 SSW 30 37 16 20 1019.9 1019.6 0.0
02/08:30pm 18.6 12.3 5.8 43 6.3 SSW 28 35 15 19 1019.3 - 0.0
02/08:00pm 19.8 13.1 5.5 39 7.1 SSW 30 39 16 21 1018.7 - 0.0
02/07:30pm 20.9 15.8 4.0 33 8.2 SSW 20 28 11 15 1018.2 - 0.0
02/07:00pm 21.9 15.6 3.6 30 8.9 SSW 26 33 14 18 1017.8 - 0.0
02/06:30pm 23.6 17.4 1.9 24 10.3 SSW 24 30 13 16 1017.1 - 0.0
02/06:00pm 24.6 18.6 0.8 21 11.1 SSW 22 33 12 18 1016.6 1016.3 0.0
02/05:30pm 27.0 20.8 -0.1 17 12.7 W 22 30 12 16 1015.8 - 0.0
02/05:00pm 28.1 21.5 -0.1 16 13.3 W 24 32 13 17 1015.5 - 0.0
02/04:30pm 28.6 22.6 1.2 17 13.3 W 22 33 12 18 1015.5 - 0.0

Other Formats:

Comma delimited format used in spreadsheet applications
http://www.bom.gov.au/fwo/IDQ60801/IDQ60801.95492.axf

JavaScript Object Notation format (JSON) in row-major order
http://www.bom.gov.au/fwo/IDQ60801/IDQ60801.95492.json